sensor_id;sensor_type;location;lat;lon;timestamp;pressure;altitude;pressure_sealevel;temperature;humidity
36598;BME280;22607;49.550;11.940;2023-12-07T00:02:03;96969.50;;;1.79;100.00
36598;BME280;22607;49.550;11.940;2023-12-07T00:04:32;96967.53;;;1.83;100.00
36598;BME280;22607;49.550;11.940;2023-12-07T00:06:58;96967.97;;;1.77;100.00
36598;BME280;22607;49.550;11.940;2023-12-07T00:09:25;96972.94;;;1.80;100.00
36598;BME280;22607;49.550;11.940;2023-12-07T00:11:52;96987.16;;;1.74;100.00
36598;BME280;22607;49.550;11.940;2023-12-07T00:14:20;96980.69;;;1.80;100.00
36598;BME280;22607;49.550;11.940;2023-12-07T00:16:46;96978.81;;;1.82;100.00
36598;BME280;22607;49.550;11.940;2023-12-07T00:19:13;96979.38;;;1.74;100.00
36598;BME280;22607;49.550;11.940;2023-12-07T00:21:40;96976.22;;;1.82;100.00
36598;BME280;22607;49.550;11.940;2023-12-07T00:24:06;96979.75;;;1.81;100.00
36598;BME280;22607;49.550;11.940;2023-12-07T00:26:33;96978.59;;;1.85;100.00
36598;BME280;22607;49.550;11.940;2023-12-07T00:29:00;96981.75;;;1.89;100.00
36598;BME280;22607;49.550;11.940;2023-12-07T00:31:27;96970.59;;;1.88;100.00
36598;BME280;22607;49.550;11.940;2023-12-07T00:33:54;96984.59;;;1.86;100.00
36598;BME280;22607;49.550;11.940;2023-12-07T00:36:20;96997.78;;;1.82;100.00
36598;BME280;22607;49.550;11.940;2023-12-07T00:38:47;96995.16;;;1.71;100.00
36598;BME280;22607;49.550;11.940;2023-12-07T00:41:14;96993.16;;;1.75;100.00
36598;BME280;22607;49.550;11.940;2023-12-07T00:43:41;96993.53;;;1.81;100.00
36598;BME280;22607;49.550;11.940;2023-12-07T00:46:07;96997.56;;;1.86;100.00
36598;BME280;22607;49.550;11.940;2023-12-07T00:48:34;96999.78;;;1.79;100.00
36598;BME280;22607;49.550;11.940;2023-12-07T00:51:01;97002.00;;;1.83;100.00
36598;BME280;22607;49.550;11.940;2023-12-07T00:53:28;96996.22;;;1.80;100.00
36598;BME280;22607;49.550;11.940;2023-12-07T00:55:55;96997.66;;;1.84;100.00
36598;BME280;22607;49.550;11.940;2023-12-07T00:58:22;96999.31;;;1.85;100.00
36598;BME280;22607;49.550;11.940;2023-12-07T01:00:49;97004.59;;;1.83;100.00
36598;BME280;22607;49.550;11.940;2023-12-07T01:03:16;97012.63;;;1.80;100.00
36598;BME280;22607;49.550;11.940;2023-12-07T01:05:43;97000.34;;;1.71;100.00
36598;BME280;22607;49.550;11.940;2023-12-07T01:08:09;97001.75;;;1.75;100.00
36598;BME280;22607;49.550;11.940;2023-12-07T01:10:36;97008.63;;;1.63;100.00
36598;BME280;22607;49.550;11.940;2023-12-07T01:13:02;97016.34;;;1.76;100.00
36598;BME280;22607;49.550;11.940;2023-12-07T01:15:29;97022.91;;;1.69;100.00
36598;BME280;22607;49.550;11.940;2023-12-07T01:17:56;97020.69;;;1.76;100.00
36598;BME280;22607;49.550;11.940;2023-12-07T01:20:22;97017.53;;;1.72;100.00
36598;BME280;22607;49.550;11.940;2023-12-07T01:22:49;97025.88;;;1.76;100.00
36598;BME280;22607;49.550;11.940;2023-12-07T01:25:16;97025.06;;;1.75;100.00
36598;BME280;22607;49.550;11.940;2023-12-07T01:27:50;97029.53;;;1.73;100.00
36598;BME280;22607;49.550;11.940;2023-12-07T01:30:16;97035.25;;;1.65;100.00
36598;BME280;22607;49.550;11.940;2023-12-07T01:32:43;97042.94;;;1.67;100.00
36598;BME280;22607;49.550;11.940;2023-12-07T01:35:10;97033.50;;;1.66;100.00
36598;BME280;22607;49.550;11.940;2023-12-07T01:37:37;97041.41;;;1.76;100.00
36598;BME280;22607;49.550;11.940;2023-12-07T01:40:04;97043.69;;;1.80;100.00
36598;BME280;22607;49.550;11.940;2023-12-07T01:42:37;97051.56;;;1.79;100.00
36598;BME280;22607;49.550;11.940;2023-12-07T01:45:06;97049.78;;;1.79;100.00
36598;BME280;22607;49.550;11.940;2023-12-07T01:47:35;97036.81;;;1.68;100.00
36598;BME280;22607;49.550;11.940;2023-12-07T01:50:02;97050.34;;;1.72;100.00
36598;BME280;22607;49.550;11.940;2023-12-07T01:52:36;97052.38;;;1.79;100.00
36598;BME280;22607;49.550;11.940;2023-12-07T01:55:05;97048.88;;;1.80;100.00
36598;BME280;22607;49.550;11.940;2023-12-07T01:57:33;97045.34;;;1.81;100.00
36598;BME280;22607;49.550;11.940;2023-12-07T02:00:00;97066.34;;;1.90;100.00
36598;BME280;22607;49.550;11.940;2023-12-07T02:02:27;97060.22;;;1.91;100.00
36598;BME280;22607;49.550;11.940;2023-12-07T02:04:54;97046.38;;;1.79;100.00
36598;BME280;22607;49.550;11.940;2023-12-07T02:07:23;97062.53;;;1.82;100.00
36598;BME280;22607;49.550;11.940;2023-12-07T02:09:50;97060.28;;;1.78;100.00
36598;BME280;22607;49.550;11.940;2023-12-07T02:12:16;97064.16;;;1.83;100.00
36598;BME280;22607;49.550;11.940;2023-12-07T02:14:47;97068.75;;;1.80;100.00
36598;BME280;22607;49.550;11.940;2023-12-07T02:17:21;97059.00;;;1.83;100.00
36598;BME280;22607;49.550;11.940;2023-12-07T02:22:36;97069.59;;;1.80;100.00
36598;BME280;22607;49.550;11.940;2023-12-07T02:25:14;97067.53;;;1.73;100.00
36598;BME280;22607;49.550;11.940;2023-12-07T02:27:45;97069.81;;;1.77;100.00
36598;BME280;22607;49.550;11.940;2023-12-07T02:30:13;97066.94;;;1.69;100.00
36598;BME280;22607;49.550;11.940;2023-12-07T02:32:41;97070.75;;;1.76;100.00
36598;BME280;22607;49.550;11.940;2023-12-07T02:35:09;97069.81;;;1.77;100.00
36598;BME280;22607;49.550;11.940;2023-12-07T02:37:41;97065.31;;;1.79;100.00
36598;BME280;22607;49.550;11.940;2023-12-07T02:40:09;97065.88;;;1.72;100.00
36598;BME280;22607;49.550;11.940;2023-12-07T02:42:38;97069.91;;;1.76;100.00
36598;BME280;22607;49.550;11.940;2023-12-07T02:45:08;97067.91;;;1.79;100.00
36598;BME280;22607;49.550;11.940;2023-12-07T02:47:35;97070.09;;;1.86;100.00
36598;BME280;22607;49.550;11.940;2023-12-07T02:50:04;97069.59;;;1.80;100.00
36598;BME280;22607;49.550;11.940;2023-12-07T02:52:32;97073.22;;;1.78;100.00
36598;BME280;22607;49.550;11.940;2023-12-07T02:54:59;97071.22;;;1.81;100.00
36598;BME280;22607;49.550;11.940;2023-12-07T02:57:26;97079.31;;;1.77;100.00
36598;BME280;22607;49.550;11.940;2023-12-07T02:59:52;97077.28;;;1.69;100.00
36598;BME280;22607;49.550;11.940;2023-12-07T03:02:19;97072.84;;;1.71;100.00
36598;BME280;22607;49.550;11.940;2023-12-07T03:04:46;97066.81;;;1.70;100.00
36598;BME280;22607;49.550;11.940;2023-12-07T03:07:12;97085.13;;;1.80;100.00
36598;BME280;22607;49.550;11.940;2023-12-07T03:09:39;97087.22;;;1.75;100.00
36598;BME280;22607;49.550;11.940;2023-12-07T03:12:06;97088.38;;;1.71;100.00
36598;BME280;22607;49.550;11.940;2023-12-07T03:14:33;97084.13;;;1.70;100.00
36598;BME280;22607;49.550;11.940;2023-12-07T03:17:00;97079.06;;;1.68;100.00
36598;BME280;22607;49.550;11.940;2023-12-07T03:19:26;97076.50;;;1.55;100.00
36598;BME280;22607;49.550;11.940;2023-12-07T03:21:53;97095.66;;;1.66;100.00
36598;BME280;22607;49.550;11.940;2023-12-07T03:24:19;97094.06;;;1.76;100.00
36598;BME280;22607;49.550;11.940;2023-12-07T03:26:46;97094.47;;;1.70;100.00
36598;BME280;22607;49.550;11.940;2023-12-07T03:29:13;97100.38;;;1.72;100.00
36598;BME280;22607;49.550;11.940;2023-12-07T03:31:39;97105.13;;;1.78;100.00
36598;BME280;22607;49.550;11.940;2023-12-07T03:34:06;97098.59;;;1.73;100.00
36598;BME280;22607;49.550;11.940;2023-12-07T03:36:32;97108.16;;;1.72;100.00
36598;BME280;22607;49.550;11.940;2023-12-07T03:39:00;97099.44;;;1.73;100.00
36598;BME280;22607;49.550;11.940;2023-12-07T03:41:28;97104.19;;;1.79;100.00
36598;BME280;22607;49.550;11.940;2023-12-07T03:43:54;97111.84;;;1.81;100.00
36598;BME280;22607;49.550;11.940;2023-12-07T03:46:21;97099.00;;;1.79;100.00
36598;BME280;22607;49.550;11.940;2023-12-07T03:48:47;97111.78;;;1.69;100.00
36598;BME280;22607;49.550;11.940;2023-12-07T03:51:14;97109.63;;;1.63;100.00
36598;BME280;22607;49.550;11.940;2023-12-07T03:53:43;97108.63;;;1.53;100.00
36598;BME280;22607;49.550;11.940;2023-12-07T03:56:10;97112.09;;;1.65;100.00
36598;BME280;22607;49.550;11.940;2023-12-07T03:58:37;97115.63;;;1.64;100.00
36598;BME280;22607;49.550;11.940;2023-12-07T04:01:04;97108.63;;;1.53;100.00
36598;BME280;22607;49.550;11.940;2023-12-07T04:03:31;97114.84;;;1.50;100.00
36598;BME280;22607;49.550;11.940;2023-12-07T04:05:58;97128.94;;;1.46;100.00
36598;BME280;22607;49.550;11.940;2023-12-07T04:08:25;97125.84;;;1.41;100.00
36598;BME280;22607;49.550;11.940;2023-12-07T04:10:51;97139.78;;;1.51;100.00
36598;BME280;22607;49.550;11.940;2023-12-07T04:13:18;97133.91;;;1.49;100.00
36598;BME280;22607;49.550;11.940;2023-12-07T04:15:45;97136.00;;;1.44;100.00
36598;BME280;22607;49.550;11.940;2023-12-07T04:18:11;97128.53;;;1.39;100.00
36598;BME280;22607;49.550;11.940;2023-12-07T04:20:38;97139.09;;;1.49;100.00
36598;BME280;22607;49.550;11.940;2023-12-07T04:23:05;97137.84;;;1.42;100.00
36598;BME280;22607;49.550;11.940;2023-12-07T04:25:31;97130.09;;;1.42;100.00
36598;BME280;22607;49.550;11.940;2023-12-07T04:27:59;97135.41;;;1.40;100.00
36598;BME280;22607;49.550;11.940;2023-12-07T04:30:25;97142.81;;;1.45;100.00
36598;BME280;22607;49.550;11.940;2023-12-07T04:32:52;97136.41;;;1.51;100.00
36598;BME280;22607;49.550;11.940;2023-12-07T04:35:19;97139.09;;;1.49;100.00
36598;BME280;22607;49.550;11.940;2023-12-07T04:37:46;97136.50;;;1.49;100.00
36598;BME280;22607;49.550;11.940;2023-12-07T04:40:12;97141.19;;;1.44;100.00
36598;BME280;22607;49.550;11.940;2023-12-07T04:42:39;97142.84;;;1.32;100.00
36598;BME280;22607;49.550;11.940;2023-12-07T04:45:06;97150.78;;;1.42;100.00
36598;BME280;22607;49.550;11.940;2023-12-07T04:47:33;97139.13;;;1.36;100.00
36598;BME280;22607;49.550;11.940;2023-12-07T04:50:00;97160.44;;;1.40;100.00
36598;BME280;22607;49.550;11.940;2023-12-07T04:52:29;97158.69;;;1.27;100.00
36598;BME280;22607;49.550;11.940;2023-12-07T04:54:55;97159.13;;;1.21;100.00
36598;BME280;22607;49.550;11.940;2023-12-07T04:57:24;97164.19;;;1.23;100.00
36598;BME280;22607;49.550;11.940;2023-12-07T04:59:56;97155.19;;;1.15;100.00
36598;BME280;22607;49.550;11.940;2023-12-07T05:02:22;97165.44;;;1.17;100.00
36598;BME280;22607;49.550;11.940;2023-12-07T05:04:49;97163.97;;;1.13;100.00
36598;BME280;22607;49.550;11.940;2023-12-07T05:07:16;97169.16;;;1.00;100.00
36598;BME280;22607;49.550;11.940;2023-12-07T05:09:44;97153.25;;;0.93;100.00
36598;BME280;22607;49.550;11.940;2023-12-07T05:12:12;97172.78;;;0.97;100.00
36598;BME280;22607;49.550;11.940;2023-12-07T05:14:39;97154.47;;;0.87;100.00
36598;BME280;22607;49.550;11.940;2023-12-07T05:17:05;97172.56;;;0.87;100.00
36598;BME280;22607;49.550;11.940;2023-12-07T05:19:32;97166.47;;;0.88;100.00
36598;BME280;22607;49.550;11.940;2023-12-07T05:21:59;97174.97;;;0.90;100.00
36598;BME280;22607;49.550;11.940;2023-12-07T05:24:27;97165.03;;;0.84;100.00
36598;BME280;22607;49.550;11.940;2023-12-07T05:26:54;97180.94;;;0.78;100.00
36598;BME280;22607;49.550;11.940;2023-12-07T05:29:20;97168.53;;;0.70;100.00
36598;BME280;22607;49.550;11.940;2023-12-07T05:31:51;97169.75;;;0.64;100.00
36598;BME280;22607;49.550;11.940;2023-12-07T05:34:18;97181.66;;;0.67;100.00
36598;BME280;22607;49.550;11.940;2023-12-07T05:36:45;97178.78;;;0.59;100.00
36598;BME280;22607;49.550;11.940;2023-12-07T05:39:12;97173.69;;;0.57;100.00
36598;BME280;22607;49.550;11.940;2023-12-07T05:41:39;97186.22;;;0.63;100.00
36598;BME280;22607;49.550;11.940;2023-12-07T05:44:06;97188.78;;;0.63;100.00
36598;BME280;22607;49.550;11.940;2023-12-07T05:46:35;97184.25;;;0.67;100.00
36598;BME280;22607;49.550;11.940;2023-12-07T05:49:02;97183.53;;;0.65;100.00
36598;BME280;22607;49.550;11.940;2023-12-07T05:51:30;97190.44;;;0.64;100.00
36598;BME280;22607;49.550;11.940;2023-12-07T05:53:57;97189.63;;;0.64;100.00
36598;BME280;22607;49.550;11.940;2023-12-07T05:56:23;97200.19;;;0.74;100.00
36598;BME280;22607;49.550;11.940;2023-12-07T05:58:50;97195.09;;;0.72;100.00
36598;BME280;22607;49.550;11.940;2023-12-07T06:01:20;97200.28;;;0.72;100.00
36598;BME280;22607;49.550;11.940;2023-12-07T06:03:47;97192.75;;;0.69;100.00
36598;BME280;22607;49.550;11.940;2023-12-07T06:06:13;97197.06;;;0.56;100.00
36598;BME280;22607;49.550;11.940;2023-12-07T06:08:40;97192.91;;;0.53;100.00
36598;BME280;22607;49.550;11.940;2023-12-07T06:11:07;97201.00;;;0.61;100.00
36598;BME280;22607;49.550;11.940;2023-12-07T06:13:33;97200.56;;;0.55;100.00
36598;BME280;22607;49.550;11.940;2023-12-07T06:16:00;97196.75;;;0.60;100.00
36598;BME280;22607;49.550;11.940;2023-12-07T06:18:29;97196.44;;;0.65;100.00
36598;BME280;22607;49.550;11.940;2023-12-07T06:20:56;97200.78;;;0.64;100.00
36598;BME280;22607;49.550;11.940;2023-12-07T06:23:22;97210.31;;;0.64;100.00
36598;BME280;22607;49.550;11.940;2023-12-07T06:25:49;97207.38;;;0.56;100.00
36598;BME280;22607;49.550;11.940;2023-12-07T06:28:15;97198.91;;;0.54;100.00
36598;BME280;22607;49.550;11.940;2023-12-07T06:30:42;97209.88;;;0.57;100.00
36598;BME280;22607;49.550;11.940;2023-12-07T06:33:09;97199.91;;;0.51;100.00
36598;BME280;22607;49.550;11.940;2023-12-07T06:35:35;97210.56;;;0.46;100.00
36598;BME280;22607;49.550;11.940;2023-12-07T06:38:02;97211.16;;;0.37;100.00
36598;BME280;22607;49.550;11.940;2023-12-07T06:40:28;97210.81;;;0.29;100.00
36598;BME280;22607;49.550;11.940;2023-12-07T06:42:55;97211.13;;;0.24;100.00
36598;BME280;22607;49.550;11.940;2023-12-07T06:45:22;97215.56;;;0.22;100.00
36598;BME280;22607;49.550;11.940;2023-12-07T06:47:48;97220.63;;;0.23;100.00
36598;BME280;22607;49.550;11.940;2023-12-07T06:50:15;97223.41;;;0.20;100.00
36598;BME280;22607;49.550;11.940;2023-12-07T06:52:42;97211.28;;;0.08;100.00
36598;BME280;22607;49.550;11.940;2023-12-07T06:55:08;97222.50;;;0.07;100.00
36598;BME280;22607;49.550;11.940;2023-12-07T06:57:38;97221.06;;;0.03;100.00
36598;BME280;22607;49.550;11.940;2023-12-07T07:00:05;97227.31;;;0.13;100.00
36598;BME280;22607;49.550;11.940;2023-12-07T07:02:40;97219.56;;;0.13;100.00
36598;BME280;22607;49.550;11.940;2023-12-07T07:05:07;97226.78;;;0.08;100.00
36598;BME280;22607;49.550;11.940;2023-12-07T07:07:37;97222.94;;;0.13;100.00
36598;BME280;22607;49.550;11.940;2023-12-07T07:10:04;97223.16;;;0.10;100.00
36598;BME280;22607;49.550;11.940;2023-12-07T07:12:33;97226.28;;;0.16;100.00
36598;BME280;22607;49.550;11.940;2023-12-07T07:14:59;97228.69;;;0.04;100.00
36598;BME280;22607;49.550;11.940;2023-12-07T07:17:27;97237.44;;;0.16;100.00
36598;BME280;22607;49.550;11.940;2023-12-07T07:19:55;97233.94;;;0.17;100.00
36598;BME280;22607;49.550;11.940;2023-12-07T07:22:22;97249.22;;;0.20;100.00
36598;BME280;22607;49.550;11.940;2023-12-07T07:24:49;97244.06;;;0.20;100.00
36598;BME280;22607;49.550;11.940;2023-12-07T07:27:15;97252.50;;;0.09;100.00
36598;BME280;22607;49.550;11.940;2023-12-07T07:29:42;97248.25;;;0.08;100.00
36598;BME280;22607;49.550;11.940;2023-12-07T07:32:09;97257.19;;;0.17;100.00
36598;BME280;22607;49.550;11.940;2023-12-07T07:34:36;97268.13;;;0.35;100.00
36598;BME280;22607;49.550;11.940;2023-12-07T07:37:09;97246.06;;;0.30;100.00
36598;BME280;22607;49.550;11.940;2023-12-07T07:39:36;97254.16;;;0.38;100.00
36598;BME280;22607;49.550;11.940;2023-12-07T07:42:02;97251.50;;;0.39;100.00
36598;BME280;22607;49.550;11.940;2023-12-07T07:44:29;97261.06;;;0.52;100.00
36598;BME280;22607;49.550;11.940;2023-12-07T07:46:56;97263.47;;;0.68;100.00
36598;BME280;22607;49.550;11.940;2023-12-07T07:49:23;97259.63;;;0.61;100.00
36598;BME280;22607;49.550;11.940;2023-12-07T07:51:50;97262.03;;;0.64;100.00
36598;BME280;22607;49.550;11.940;2023-12-07T07:54:17;97268.25;;;0.74;100.00
36598;BME280;22607;49.550;11.940;2023-12-07T07:56:45;97259.13;;;0.69;100.00
36598;BME280;22607;49.550;11.940;2023-12-07T07:59:11;97271.75;;;0.73;100.00
36598;BME280;22607;49.550;11.940;2023-12-07T08:01:38;97267.66;;;0.84;100.00
36598;BME280;22607;49.550;11.940;2023-12-07T08:04:05;97281.72;;;0.93;100.00
36598;BME280;22607;49.550;11.940;2023-12-07T08:06:31;97267.84;;;0.81;100.00
36598;BME280;22607;49.550;11.940;2023-12-07T08:09:02;97275.06;;;0.75;100.00
36598;BME280;22607;49.550;11.940;2023-12-07T08:11:30;97272.63;;;0.87;100.00
36598;BME280;22607;49.550;11.940;2023-12-07T08:13:57;97275.31;;;0.85;100.00
36598;BME280;22607;49.550;11.940;2023-12-07T08:16:30;97279.13;;;0.93;100.00
36598;BME280;22607;49.550;11.940;2023-12-07T08:18:57;97281.13;;;1.02;100.00
36598;BME280;22607;49.550;11.940;2023-12-07T08:21:25;97274.63;;;0.96;100.00
36598;BME280;22607;49.550;11.940;2023-12-07T08:23:56;97289.81;;;1.01;100.00
36598;BME280;22607;49.550;11.940;2023-12-07T08:26:23;97293.34;;;1.13;100.00
36598;BME280;22607;49.550;11.940;2023-12-07T08:28:50;97283.13;;;1.24;100.00
36598;BME280;22607;49.550;11.940;2023-12-07T08:31:20;97282.28;;;1.24;100.00
36598;BME280;22607;49.550;11.940;2023-12-07T08:33:52;97285.41;;;1.29;100.00
36598;BME280;22607;49.550;11.940;2023-12-07T08:36:19;97291.75;;;1.38;100.00
36598;BME280;22607;49.550;11.940;2023-12-07T08:38:47;97294.53;;;1.35;100.00
36598;BME280;22607;49.550;11.940;2023-12-07T08:41:14;97288.63;;;1.46;100.00
36598;BME280;22607;49.550;11.940;2023-12-07T08:43:41;97289.75;;;1.80;100.00
36598;BME280;22607;49.550;11.940;2023-12-07T08:46:08;97289.81;;;1.92;100.00
36598;BME280;22607;49.550;11.940;2023-12-07T08:48:38;97290.13;;;2.00;100.00
36598;BME280;22607;49.550;11.940;2023-12-07T08:51:08;97282.66;;;1.95;100.00
36598;BME280;22607;49.550;11.940;2023-12-07T08:53:35;97286.09;;;1.96;100.00
36598;BME280;22607;49.550;11.940;2023-12-07T08:56:02;97292.50;;;2.03;100.00
36598;BME280;22607;49.550;11.940;2023-12-07T08:58:34;97283.91;;;2.03;100.00
36598;BME280;22607;49.550;11.940;2023-12-07T09:01:01;97293.00;;;2.08;100.00
36598;BME280;22607;49.550;11.940;2023-12-07T09:03:28;97284.84;;;1.89;100.00
36598;BME280;22607;49.550;11.940;2023-12-07T09:05:59;97286.72;;;1.87;100.00
36598;BME280;22607;49.550;11.940;2023-12-07T09:08:31;97285.19;;;1.84;100.00
36598;BME280;22607;49.550;11.940;2023-12-07T09:10:57;97275.28;;;2.02;100.00
36598;BME280;22607;49.550;11.940;2023-12-07T09:13:24;97280.56;;;2.14;100.00
36598;BME280;22607;49.550;11.940;2023-12-07T09:15:51;97278.38;;;2.07;100.00
36598;BME280;22607;49.550;11.940;2023-12-07T09:18:19;97287.28;;;2.16;100.00
36598;BME280;22607;49.550;11.940;2023-12-07T09:20:45;97283.50;;;1.96;100.00
36598;BME280;22607;49.550;11.940;2023-12-07T09:23:13;97285.50;;;2.17;100.00
36598;BME280;22607;49.550;11.940;2023-12-07T09:25:42;97290.63;;;2.43;100.00
36598;BME280;22607;49.550;11.940;2023-12-07T09:28:12;97284.44;;;2.32;100.00
36598;BME280;22607;49.550;11.940;2023-12-07T09:30:39;97286.13;;;2.45;100.00
36598;BME280;22607;49.550;11.940;2023-12-07T09:33:06;97280.19;;;2.31;100.00
36598;BME280;22607;49.550;11.940;2023-12-07T09:35:33;97288.72;;;2.45;100.00
36598;BME280;22607;49.550;11.940;2023-12-07T09:38:01;97286.44;;;2.16;100.00
36598;BME280;22607;49.550;11.940;2023-12-07T09:40:29;97283.69;;;2.43;100.00
36598;BME280;22607;49.550;11.940;2023-12-07T09:42:56;97285.72;;;2.51;100.00
36598;BME280;22607;49.550;11.940;2023-12-07T09:45:25;97283.34;;;2.72;100.00
36598;BME280;22607;49.550;11.940;2023-12-07T09:47:54;97295.91;;;2.66;100.00
36598;BME280;22607;49.550;11.940;2023-12-07T09:50:26;97289.41;;;2.84;100.00
36598;BME280;22607;49.550;11.940;2023-12-07T09:52:57;97285.88;;;2.61;100.00
36598;BME280;22607;49.550;11.940;2023-12-07T09:55:34;97266.56;;;3.01;100.00
36598;BME280;22607;49.550;11.940;2023-12-07T09:58:04;97273.00;;;3.31;100.00
36598;BME280;22607;49.550;11.940;2023-12-07T10:00:34;97259.31;;;3.40;100.00
36598;BME280;22607;49.550;11.940;2023-12-07T10:03:02;97254.38;;;3.60;100.00
36598;BME280;22607;49.550;11.940;2023-12-07T10:05:29;97262.28;;;3.47;100.00
36598;BME280;22607;49.550;11.940;2023-12-07T10:07:56;97257.31;;;3.44;100.00
36598;BME280;22607;49.550;11.940;2023-12-07T10:10:30;97255.22;;;3.61;100.00
36598;BME280;22607;49.550;11.940;2023-12-07T10:12:59;97262.53;;;3.67;100.00
36598;BME280;22607;49.550;11.940;2023-12-07T10:15:26;97252.72;;;3.71;100.00
36598;BME280;22607;49.550;11.940;2023-12-07T10:17:58;97259.56;;;3.94;100.00
36598;BME280;22607;49.550;11.940;2023-12-07T10:20:27;97258.03;;;3.80;100.00
36598;BME280;22607;49.550;11.940;2023-12-07T10:23:05;97250.56;;;3.99;100.00
36598;BME280;22607;49.550;11.940;2023-12-07T10:25:40;97256.16;;;3.94;100.00
36598;BME280;22607;49.550;11.940;2023-12-07T10:28:09;97240.16;;;4.10;100.00
36598;BME280;22607;49.550;11.940;2023-12-07T10:30:41;97252.41;;;4.31;100.00
36598;BME280;22607;49.550;11.940;2023-12-07T10:33:09;97243.50;;;4.45;99.44
36598;BME280;22607;49.550;11.940;2023-12-07T10:35:40;97241.28;;;4.94;99.03
36598;BME280;22607;49.550;11.940;2023-12-07T10:38:08;97237.78;;;5.27;97.93
36598;BME280;22607;49.550;11.940;2023-12-07T10:40:34;97233.84;;;5.32;93.02
36598;BME280;22607;49.550;11.940;2023-12-07T10:43:04;97233.09;;;5.51;89.24
36598;BME280;22607;49.550;11.940;2023-12-07T10:45:32;97219.09;;;5.43;90.69
36598;BME280;22607;49.550;11.940;2023-12-07T10:48:08;97223.72;;;5.39;88.47
36598;BME280;22607;49.550;11.940;2023-12-07T10:50:37;97231.59;;;5.90;84.80
36598;BME280;22607;49.550;11.940;2023-12-07T10:53:32;97225.47;;;6.01;82.01
36598;BME280;22607;49.550;11.940;2023-12-07T10:56:00;97213.19;;;6.62;80.48
36598;BME280;22607;49.550;11.940;2023-12-07T10:58:27;97212.06;;;7.04;78.01
36598;BME280;22607;49.550;11.940;2023-12-07T11:00:55;97221.09;;;7.30;77.09
36598;BME280;22607;49.550;11.940;2023-12-07T11:03:25;97208.94;;;6.71;78.26
36598;BME280;22607;49.550;11.940;2023-12-07T11:05:52;97217.41;;;6.14;80.78
36598;BME280;22607;49.550;11.940;2023-12-07T11:08:50;97213.50;;;5.88;82.43
36598;BME280;22607;49.550;11.940;2023-12-07T11:11:28;97217.00;;;6.09;85.67
36598;BME280;22607;49.550;11.940;2023-12-07T11:14:06;97215.94;;;6.21;79.75
36598;BME280;22607;49.550;11.940;2023-12-07T11:16:37;97206.75;;;6.47;79.16
36598;BME280;22607;49.550;11.940;2023-12-07T11:19:04;97205.91;;;6.46;77.92
36598;BME280;22607;49.550;11.940;2023-12-07T11:21:38;97199.34;;;6.52;79.05
36598;BME280;22607;49.550;11.940;2023-12-07T11:24:05;97203.84;;;6.40;80.61
36598;BME280;22607;49.550;11.940;2023-12-07T11:26:32;97195.75;;;6.63;77.28
36598;BME280;22607;49.550;11.940;2023-12-07T11:28:59;97196.78;;;5.91;80.31
36598;BME280;22607;49.550;11.940;2023-12-07T11:31:26;97189.44;;;6.16;81.63
36598;BME280;22607;49.550;11.940;2023-12-07T11:33:56;97192.03;;;6.16;78.21
36598;BME280;22607;49.550;11.940;2023-12-07T11:36:24;97181.69;;;5.95;77.57
36598;BME280;22607;49.550;11.940;2023-12-07T11:39:17;97183.25;;;6.07;78.44
36598;BME280;22607;49.550;11.940;2023-12-07T11:41:55;97177.09;;;6.38;78.93
36598;BME280;22607;49.550;11.940;2023-12-07T11:44:38;97180.38;;;6.79;74.53
36598;BME280;22607;49.550;11.940;2023-12-07T11:47:06;97184.22;;;6.65;74.17
36598;BME280;22607;49.550;11.940;2023-12-07T11:49:33;97173.75;;;6.06;75.71
36598;BME280;22607;49.550;11.940;2023-12-07T11:52:16;97186.81;;;6.16;75.50
36598;BME280;22607;49.550;11.940;2023-12-07T11:54:47;97184.63;;;6.21;79.71
36598;BME280;22607;49.550;11.940;2023-12-07T11:57:15;97179.16;;;6.44;76.00
36598;BME280;22607;49.550;11.940;2023-12-07T11:59:45;97171.84;;;6.18;76.31
36598;BME280;22607;49.550;11.940;2023-12-07T12:02:15;97192.47;;;5.39;79.13
36598;BME280;22607;49.550;11.940;2023-12-07T12:04:42;97181.06;;;6.12;76.55
36598;BME280;22607;49.550;11.940;2023-12-07T12:07:10;97180.78;;;6.06;78.11
36598;BME280;22607;49.550;11.940;2023-12-07T12:09:37;97159.94;;;5.74;80.21
36598;BME280;22607;49.550;11.940;2023-12-07T12:12:04;97167.59;;;6.17;77.67
36598;BME280;22607;49.550;11.940;2023-12-07T12:14:31;97173.47;;;5.58;78.05
36598;BME280;22607;49.550;11.940;2023-12-07T12:16:58;97161.41;;;6.18;75.81
36598;BME280;22607;49.550;11.940;2023-12-07T12:19:25;97152.91;;;6.16;71.58
36598;BME280;22607;49.550;11.940;2023-12-07T12:22:03;97160.75;;;6.16;71.78
36598;BME280;22607;49.550;11.940;2023-12-07T12:24:45;97149.28;;;5.87;73.49
36598;BME280;22607;49.550;11.940;2023-12-07T12:27:13;97140.97;;;5.52;79.61
36598;BME280;22607;49.550;11.940;2023-12-07T12:29:40;97150.38;;;5.85;74.69
36598;BME280;22607;49.550;11.940;2023-12-07T12:32:08;97139.16;;;6.14;73.90
36598;BME280;22607;49.550;11.940;2023-12-07T12:34:35;97141.88;;;6.02;73.83
36598;BME280;22607;49.550;11.940;2023-12-07T12:37:05;97143.56;;;6.03;72.79
36598;BME280;22607;49.550;11.940;2023-12-07T12:39:33;97142.13;;;5.80;74.99
36598;BME280;22607;49.550;11.940;2023-12-07T12:42:04;97143.78;;;5.81;73.48
36598;BME280;22607;49.550;11.940;2023-12-07T12:44:33;97136.91;;;5.70;73.68
36598;BME280;22607;49.550;11.940;2023-12-07T12:47:07;97142.81;;;5.31;76.96
36598;BME280;22607;49.550;11.940;2023-12-07T12:49:38;97121.91;;;5.52;75.08
36598;BME280;22607;49.550;11.940;2023-12-07T12:52:14;97120.78;;;5.45;74.19
36598;BME280;22607;49.550;11.940;2023-12-07T12:54:43;97142.78;;;5.21;75.49
36598;BME280;22607;49.550;11.940;2023-12-07T12:57:10;97129.50;;;5.34;77.29
36598;BME280;22607;49.550;11.940;2023-12-07T12:59:37;97131.88;;;5.37;75.99
36598;BME280;22607;49.550;11.940;2023-12-07T13:02:04;97145.28;;;5.01;76.89